Time;durP1;ratioP1;P1;durP2;ratioP2;P2;SDS_P1;SDS_P2;PMS_P1;PMS_P2;Temp;Humidity;BMP_temperature;BMP_pressure;BME280_temperature;BME280_humidity;BME280_pressure;Samples;Min_cycle;Max_cycle;Signal;HPM_P1;HPM_P2
2023/03/28 00:01:08;;;;;;;3.47;0.80;;;;;;;1.24;76.08;97810.22;5010965;28;20050;-75
2023/03/28 00:03:38;;;;;;;2.72;0.90;;;;;;;1.09;76.40;97799.19;5010711;28;20096;-73
2023/03/28 00:06:09;;;;;;;0.90;0.75;;;;;;;1.17;75.92;97801.16;5010249;28;20069;-73
2023/03/28 00:08:39;;;;;;;0.60;0.60;;;;;;;1.12;75.53;97808.63;5009376;28;20137;-73
2023/03/28 00:11:08;;;;;;;3.63;0.90;;;;;;;1.14;75.56;97817.22;5002458;28;20042;-72
2023/03/28 00:13:36;;;;;;;1.45;0.98;;;;;;;1.13;75.19;97810.28;5010897;28;20092;-75
2023/03/28 00:16:07;;;;;;;1.17;0.98;;;;;;;1.09;74.97;97807.06;5010491;28;20136;-73
2023/03/28 00:18:36;;;;;;;1.58;0.82;;;;;;;1.16;75.03;97815.25;5009822;28;20045;-73
2023/03/28 00:21:08;;;;;;;2.65;1.30;;;;;;;1.03;75.39;97816.34;5010619;28;20065;-73
2023/03/28 00:23:36;;;;;;;1.65;0.60;;;;;;;1.07;75.63;97809.84;5009160;28;20561;-73
2023/03/28 00:26:06;;;;;;;3.88;0.95;;;;;;;1.18;75.61;97815.97;5008928;28;20500;-73
2023/03/28 00:28:35;;;;;;;1.95;0.90;;;;;;;1.06;75.66;97809.97;5009394;28;20501;-72
2023/03/28 00:31:04;;;;;;;3.55;1.10;;;;;;;1.01;75.91;97809.53;5006852;28;20046;-73
2023/03/28 00:33:31;;;;;;;2.40;0.80;;;;;;;1.09;76.04;97813.16;5014506;28;20046;-76
2023/03/28 00:35:59;;;;;;;3.10;0.80;;;;;;;1.11;75.47;97813.03;5009614;28;20112;-74
2023/03/28 00:38:28;;;;;;;1.73;0.88;;;;;;;1.02;76.07;97809.41;5005272;28;20042;-74
2023/03/28 00:40:56;;;;;;;2.83;0.95;;;;;;;1.05;75.97;97808.28;5012985;28;20050;-74
2023/03/28 00:43:38;;;;;;;2.70;1.20;;;;;;;1.04;75.57;97809.25;5013421;28;20363;-74
2023/03/28 00:46:10;;;;;;;2.78;1.00;;;;;;;0.98;75.28;97808.00;5014000;28;20208;-74
2023/03/28 00:48:49;;;;;;;3.83;1.20;;;;;;;0.92;75.45;97815.56;5012848;28;20046;-74
2023/03/28 00:51:19;;;;;;;2.03;0.70;;;;;;;1.04;75.35;97812.72;5014084;28;20041;-73
2023/03/28 00:53:49;;;;;;;1.00;0.80;;;;;;;1.01;75.65;97820.88;5013454;28;20652;-73
2023/03/28 00:56:19;;;;;;;3.25;1.10;;;;;;;1.05;74.56;97826.69;5012693;28;20092;-73
2023/03/28 00:58:47;;;;;;;1.70;0.75;;;;;;;0.89;74.81;97819.28;5012736;28;20042;-73
2023/03/28 01:01:16;;;;;;;4.40;1.10;;;;;;;0.93;74.46;97823.31;5013233;28;20050;-73
2023/03/28 01:03:47;;;;;;;1.98;0.85;;;;;;;1.05;74.66;97818.81;5012753;28;20140;-73
2023/03/28 01:06:15;;;;;;;2.67;0.98;;;;;;;0.94;74.67;97821.50;5011364;28;20060;-74
2023/03/28 01:08:46;;;;;;;2.15;0.73;;;;;;;1.11;74.11;97828.81;5011943;28;20046;-74
2023/03/28 01:11:17;;;;;;;4.95;1.00;;;;;;;1.03;74.42;97823.38;5010676;28;20046;-75
2023/03/28 01:13:47;;;;;;;1.42;1.30;;;;;;;1.00;74.35;97821.00;5011184;28;20072;-74
2023/03/28 01:16:15;;;;;;;3.53;1.15;;;;;;;1.01;74.30;97820.03;5012100;28;20058;-74
2023/03/28 01:18:45;;;;;;;4.85;1.10;;;;;;;1.05;74.59;97830.16;5012996;28;20041;-74
2023/03/28 01:21:30;;;;;;;3.30;1.13;;;;;;;1.01;75.03;97839.28;5012303;28;20058;-74
2023/03/28 01:24:32;;;;;;;2.58;0.82;;;;;;;0.88;74.98;97825.50;5010199;28;20050;-74
2023/03/28 01:27:05;;;;;;;1.85;0.93;;;;;;;1.00;74.77;97831.50;5011308;28;20505;-74
2023/03/28 01:30:02;;;;;;;1.40;0.82;;;;;;;0.99;74.22;97832.47;5011977;28;20041;-74
2023/03/28 01:33:30;;;;;;;2.67;1.00;;;;;;;0.97;74.33;97835.22;5008376;28;20058;-74
2023/03/28 01:36:38;;;;;;;2.97;1.13;;;;;;;0.95;74.66;97831.88;5007618;28;20148;-74
2023/03/28 01:39:09;;;;;;;1.52;0.63;;;;;;;0.95;74.39;97833.69;5011811;28;20052;-74
2023/03/28 01:41:41;;;;;;;3.72;1.45;;;;;;;0.97;75.12;97835.22;5011016;28;20398;-74
2023/03/28 01:44:12;;;;;;;4.28;1.55;;;;;;;1.07;74.55;97825.59;5011779;28;20398;-74
2023/03/28 01:46:44;;;;;;;2.53;1.08;;;;;;;1.00;74.45;97840.22;5011342;28;20049;-75
2023/03/28 01:49:17;;;;;;;2.58;0.82;;;;;;;1.01;74.27;97836.63;5011488;28;20577;-74
2023/03/28 01:51:51;;;;;;;2.17;1.02;;;;;;;1.02;74.67;97834.84;5011953;28;20042;-74
2023/03/28 01:54:28;;;;;;;2.45;0.70;;;;;;;1.03;73.65;97826.84;5012771;28;20038;-73
2023/03/28 01:57:01;;;;;;;2.75;0.95;;;;;;;1.01;74.34;97839.28;5011116;28;20057;-73
2023/03/28 01:59:37;;;;;;;4.72;1.30;;;;;;;1.18;73.54;97837.84;5010601;28;20088;-74
2023/03/28 02:02:27;;;;;;;0.90;0.80;;;;;;;1.09;73.58;97833.34;5012528;28;20400;-74
2023/03/28 02:05:00;;;;;;;4.60;1.08;;;;;;;1.04;73.67;97835.53;5011094;28;20050;-74
2023/03/28 02:07:32;;;;;;;1.13;0.75;;;;;;;1.06;73.38;97831.81;5022310;28;20353;-74
2023/03/28 02:10:21;;;;;;;2.60;1.10;;;;;;;1.12;73.59;97829.66;5011098;28;20138;-74
2023/03/28 02:13:02;;;;;;;2.30;0.60;;;;;;;1.16;73.93;97836.28;5011289;28;20104;-74
2023/03/28 02:15:54;;;;;;;3.50;1.58;;;;;;;0.98;73.25;97833.44;5026570;28;20503;-75
2023/03/28 02:18:44;;;;;;;4.53;1.30;;;;;;;1.03;73.53;97836.50;5006275;28;20049;-74
2023/03/28 02:21:36;;;;;;;6.80;1.02;;;;;;;1.03;73.86;97842.59;5010624;28;20054;-74
2023/03/28 02:24:11;;;;;;;3.60;1.13;;;;;;;1.07;73.95;97830.84;5010135;28;20494;-75
2023/03/28 02:26:53;;;;;;;2.65;0.90;;;;;;;1.07;73.95;97840.53;5007589;28;20136;-74
2023/03/28 02:29:42;;;;;;;2.97;0.80;;;;;;;1.00;74.21;97845.47;5007512;28;20049;-74
2023/03/28 02:32:16;;;;;;;3.47;0.93;;;;;;;1.06;74.27;97847.59;5011156;28;20595;-75
2023/03/28 02:34:46;;;;;;;4.50;1.13;;;;;;;0.98;74.31;97846.56;5011720;28;20068;-74
2023/03/28 02:37:24;;;;;;;3.35;1.02;;;;;;;1.08;73.63;97834.31;5011922;28;20068;-74
2023/03/28 02:40:02;;;;;;;5.82;0.93;;;;;;;1.17;73.37;97853.72;5010607;28;20092;-75
2023/03/28 02:42:50;;;;;;;4.22;1.05;;;;;;;1.03;74.19;97844.41;5011544;28;20054;-74
2023/03/28 02:45:26;;;;;;;5.40;1.48;;;;;;;1.07;73.28;97848.41;5009750;28;20045;-75
2023/03/28 02:48:01;;;;;;;3.83;1.00;;;;;;;1.14;73.17;97839.06;5012356;28;20042;-74
2023/03/28 02:50:35;;;;;;;2.58;0.75;;;;;;;1.09;73.23;97831.56;5009352;28;20046;-75
2023/03/28 02:53:05;;;;;;;9.48;1.30;;;;;;;1.11;73.83;97839.31;5010828;28;20069;-75
2023/03/28 02:55:38;;;;;;;1.45;0.80;;;;;;;1.11;73.64;97836.69;5009835;28;20046;-75
2023/03/28 02:58:16;;;;;;;4.72;1.38;;;;;;;1.15;73.60;97843.34;5010458;28;20073;-75
2023/03/28 03:00:43;;;;;;;5.97;1.35;;;;;;;1.13;73.42;97850.53;5007052;28;20449;-74
2023/03/28 03:03:12;;;;;;;8.18;1.58;;;;;;;1.04;72.76;97846.03;5011961;28;20042;-75
2023/03/28 03:05:40;;;;;;;5.78;1.13;;;;;;;1.09;72.96;97847.34;5009746;28;20524;-75
2023/03/28 03:08:08;;;;;;;2.85;1.13;;;;;;;0.98;73.03;97849.19;5010246;28;20049;-75
2023/03/28 03:10:36;;;;;;;1.15;0.73;;;;;;;1.05;73.25;97859.06;5006942;28;20042;-74
2023/03/28 03:13:04;;;;;;;7.05;1.15;;;;;;;1.16;72.77;97863.41;5008735;28;20030;-74
2023/03/28 03:15:34;;;;;;;1.05;0.90;;;;;;;1.11;72.94;97860.34;5007749;28;20144;-74
2023/03/28 03:18:22;;;;;;;4.93;1.00;;;;;;;1.16;72.26;97862.56;5010795;28;20493;-74
2023/03/28 03:20:50;;;;;;;3.00;0.65;;;;;;;1.24;72.03;97857.53;5004478;28;20051;-75
2023/03/28 03:23:17;;;;;;;2.92;0.98;;;;;;;1.18;72.65;97858.03;5009756;28;20050;-74
2023/03/28 03:25:49;;;;;;;4.82;1.25;;;;;;;1.21;72.11;97853.34;5006402;28;20058;-74
2023/03/28 03:28:30;;;;;;;4.05;1.10;;;;;;;1.19;72.30;97859.69;5025835;28;20144;-74
2023/03/28 03:30:59;;;;;;;13.77;1.23;;;;;;;1.00;72.21;97853.38;5006006;28;20089;-74
2023/03/28 03:33:47;;;;;;;2.70;1.05;;;;;;;1.04;72.37;97865.25;5021016;28;20084;-74
2023/03/28 03:36:19;;;;;;;3.97;0.90;;;;;;;0.98;72.39;97865.78;5007186;28;20050;-75
2023/03/28 03:38:47;;;;;;;1.65;1.10;;;;;;;1.04;72.30;97869.69;5004664;28;20124;-75
2023/03/28 03:41:21;;;;;;;3.42;1.35;;;;;;;1.09;72.19;97862.25;5003500;28;20065;-75
2023/03/28 03:43:49;;;;;;;4.85;1.83;;;;;;;1.08;72.80;97858.81;5009112;28;20108;-74
2023/03/28 03:46:16;;;;;;;4.60;1.42;;;;;;;1.01;72.45;97857.66;5025073;28;20505;-74
2023/03/28 03:48:46;;;;;;;3.05;1.00;;;;;;;1.04;72.21;97864.44;5010555;28;20042;-75
2023/03/28 03:51:17;;;;;;;2.15;0.80;;;;;;;1.04;72.40;97865.25;5007832;28;20066;-75
2023/03/28 03:53:45;;;;;;;1.95;0.63;;;;;;;1.06;72.09;97873.88;5009845;28;20045;-75
2023/03/28 03:56:16;;;;;;;5.70;1.33;;;;;;;0.98;72.74;97872.84;5007935;28;20117;-75
2023/03/28 03:58:53;;;;;;;2.10;0.93;;;;;;;1.07;72.64;97878.16;5004122;28;20050;-75
2023/03/28 04:01:24;;;;;;;5.57;1.00;;;;;;;1.07;72.69;97878.16;5005168;28;20493;-74
2023/03/28 04:03:53;;;;;;;5.35;1.00;;;;;;;1.06;72.73;97878.28;5006915;28;20452;-75
2023/03/28 04:06:28;;;;;;;4.72;0.80;;;;;;;1.08;72.65;97885.09;5001227;28;20042;-75
2023/03/28 04:08:56;;;;;;;6.57;1.25;;;;;;;1.09;72.98;97880.66;5012107;28;20097;-75
2023/03/28 04:11:40;;;;;;;7.55;1.00;;;;;;;1.14;73.08;97878.50;5007366;28;20034;-74
2023/03/28 04:14:09;;;;;;;3.33;0.90;;;;;;;1.08;73.28;97894.75;5003387;28;20058;-75
2023/03/28 04:16:37;;;;;;;5.18;1.50;;;;;;;1.06;72.89;97888.78;5017039;28;20050;-75
2023/03/28 04:19:09;;;;;;;1.23;0.60;;;;;;;1.10;73.02;97887.59;5010951;28;20049;-75
2023/03/28 04:21:41;;;;;;;3.25;0.88;;;;;;;1.10;73.47;97884.97;5013582;28;20527;-75
2023/03/28 04:24:14;;;;;;;8.73;1.10;;;;;;;1.13;73.10;97897.84;5013426;28;20141;-75
2023/03/28 04:26:48;;;;;;;7.00;1.73;;;;;;;1.11;72.89;97902.41;5013278;28;20057;-75
2023/03/28 04:29:23;;;;;;;5.70;1.52;;;;;;;1.06;73.70;97908.03;5012235;28;20038;-75
2023/03/28 04:32:11;;;;;;;1.48;1.00;;;;;;;1.03;73.59;97912.72;5011763;28;20048;-75
2023/03/28 04:34:59;;;;;;;0.95;0.68;;;;;;;1.06;73.68;97912.44;5012590;28;20053;-76
2023/03/28 04:37:27;;;;;;;3.05;1.73;;;;;;;1.18;73.68;97916.69;5012070;28;20405;-74
2023/03/28 04:40:03;;;;;;;2.05;0.95;;;;;;;1.17;73.48;97916.81;5007230;28;20138;-73
2023/03/28 04:42:41;;;;;;;3.75;1.55;;;;;;;1.21;73.69;97924.31;5012692;28;20082;-73
2023/03/28 04:45:13;;;;;;;3.85;1.20;;;;;;;1.22;74.08;97933.03;5010924;28;20559;-74
2023/03/28 04:47:45;;;;;;;4.00;1.08;;;;;;;1.15;73.86;97929.22;5012658;28;20050;-74
2023/03/28 04:50:18;;;;;;;6.97;1.52;;;;;;;1.25;73.30;97927.50;5013317;28;20046;-74
2023/03/28 04:52:45;;;;;;;6.53;1.23;;;;;;;1.33;73.54;97935.59;5014739;28;20046;-74
2023/03/28 04:55:15;;;;;;;1.25;0.88;;;;;;;1.18;73.45;97937.72;5013075;28;20041;-75
2023/03/28 04:57:45;;;;;;;2.92;1.58;;;;;;;1.18;73.92;97939.50;5011767;28;20056;-75
2023/03/28 05:00:15;;;;;;;5.78;1.40;;;;;;;1.25;74.11;97940.66;5015639;28;20393;-75
2023/03/28 05:02:56;;;;;;;5.40;1.45;;;;;;;1.23;73.56;97942.59;5030953;28;20061;-75
2023/03/28 05:05:26;;;;;;;1.85;1.00;;;;;;;1.17;74.13;97945.72;5026888;28;20046;-76
2023/03/28 05:07:55;;;;;;;5.78;1.45;;;;;;;1.17;74.28;97948.34;5036493;28;20053;-77
2023/03/28 05:10:23;;;;;;;2.95;1.00;;;;;;;1.20;74.16;97954.19;5033612;28;20030;-76
2023/03/28 05:12:57;;;;;;;5.03;1.42;;;;;;;1.24;74.30;97954.78;5021493;28;20092;-75
2023/03/28 05:15:27;;;;;;;2.55;0.90;;;;;;;1.23;74.47;97966.25;5003013;28;20409;-75
2023/03/28 05:18:02;;;;;;;2.92;1.73;;;;;;;1.18;74.71;97969.25;5012254;28;20041;-75
2023/03/28 05:20:34;;;;;;;3.40;0.90;;;;;;;1.17;74.97;97974.63;5013646;28;20133;-75
2023/03/28 05:23:04;;;;;;;3.50;0.75;;;;;;;1.25;74.43;97964.31;5015888;28;20113;-75
2023/03/28 05:25:33;;;;;;;6.93;1.40;;;;;;;1.31;74.25;97969.91;5005608;28;20053;-75
2023/03/28 05:28:01;;;;;;;4.75;1.35;;;;;;;1.23;74.65;97974.13;5015521;28;20046;-75
2023/03/28 05:30:31;;;;;;;3.97;1.20;;;;;;;1.28;74.71;97977.22;5017866;28;20168;-75
2023/03/28 05:33:00;;;;;;;6.13;1.23;;;;;;;1.28;74.78;97974.56;5015047;28;20509;-75
2023/03/28 05:35:29;;;;;;;6.30;1.52;;;;;;;1.47;74.21;97982.59;5012144;28;20056;-75
2023/03/28 05:37:57;;;;;;;2.53;0.90;;;;;;;1.43;73.92;97983.84;5012410;28;20050;-74
2023/03/28 05:40:24;;;;;;;6.82;1.90;;;;;;;1.49;74.17;97985.94;5012294;28;20050;-75
2023/03/28 05:42:52;;;;;;;6.88;1.75;;;;;;;1.35;75.17;97988.91;5012325;28;20517;-75
2023/03/28 05:45:20;;;;;;;8.52;1.73;;;;;;;1.48;75.09;97992.16;5011649;28;20092;-75
2023/03/28 05:47:53;;;;;;;5.68;1.25;;;;;;;1.50;75.72;97992.03;5009858;28;20042;-75
2023/03/28 05:50:22;;;;;;;5.43;1.40;;;;;;;1.54;76.14;97999.56;5011760;28;20513;-75
2023/03/28 05:52:50;;;;;;;4.47;1.38;;;;;;;1.42;76.85;98004.03;5013029;28;20049;-74
2023/03/28 05:55:19;;;;;;;6.13;1.52;;;;;;;1.51;77.15;98001.59;5011472;28;20114;-75
2023/03/28 05:57:47;;;;;;;4.72;2.22;;;;;;;1.55;77.98;98003.84;5007117;28;20138;-75
2023/03/28 06:00:18;;;;;;;3.53;1.70;;;;;;;1.49;77.64;98006.97;5010571;28;20046;-75
2023/03/28 06:02:46;;;;;;;3.63;1.52;;;;;;;1.62;77.79;98009.41;5013555;28;20065;-75
2023/03/28 06:05:18;;;;;;;6.85;1.73;;;;;;;1.66;78.10;98014.28;5010951;28;20551;-75
2023/03/28 06:07:46;;;;;;;3.92;1.25;;;;;;;1.72;77.35;98018.22;5006377;28;20120;-74
2023/03/28 06:10:16;;;;;;;2.08;1.35;;;;;;;1.61;76.63;98032.25;5009179;28;20052;-74
2023/03/28 06:12:55;;;;;;;8.38;1.90;;;;;;;1.61;77.03;98023.53;5010958;28;20038;-75
2023/03/28 06:15:23;;;;;;;3.25;1.52;;;;;;;1.72;76.48;98036.63;5010957;28;20513;-75
2023/03/28 06:17:51;;;;;;;4.57;2.35;;;;;;;1.62;76.13;98036.56;5011284;28;20132;-75
2023/03/28 06:20:20;;;;;;;3.95;1.73;;;;;;;1.53;76.69;98047.84;5011045;28;20597;-75
2023/03/28 06:22:52;;;;;;;5.55;1.60;;;;;;;1.79;75.90;98045.66;5011321;28;20424;-75
2023/03/28 06:25:20;;;;;;;3.45;1.65;;;;;;;1.75;75.21;98050.38;5027098;28;20112;-75
2023/03/28 06:27:48;;;;;;;7.45;1.63;;;;;;;1.82;74.81;98061.19;5010884;28;20041;-75
2023/03/28 06:30:17;;;;;;;4.25;1.70;;;;;;;1.86;74.18;98064.41;5010731;28;20505;-75
2023/03/28 06:32:49;;;;;;;6.43;1.45;;;;;;;1.92;73.90;98069.16;5010743;28;20569;-75
2023/03/28 06:35:17;;;;;;;6.32;1.90;;;;;;;1.97;74.66;98072.25;5011411;28;20048;-75
2023/03/28 06:37:46;;;;;;;2.63;1.38;;;;;;;2.06;74.33;98071.47;5010810;28;20492;-75
2023/03/28 06:40:18;;;;;;;6.20;1.48;;;;;;;2.14;73.90;98069.00;5002782;28;20038;-75
2023/03/28 06:42:45;;;;;;;4.68;1.13;;;;;;;2.11;73.20;98072.75;5010506;28;20409;-75
2023/03/28 06:45:22;;;;;;;5.70;1.10;;;;;;;2.14;73.02;98077.75;5003380;28;20050;-74
2023/03/28 06:47:58;;;;;;;3.35;1.25;;;;;;;2.14;72.36;98084.81;5010768;28;20088;-74
2023/03/28 06:50:48;;;;;;;5.80;1.58;;;;;;;2.16;71.68;98082.88;5006914;28;20046;-75
2023/03/28 06:53:21;;;;;;;9.50;1.50;;;;;;;2.07;72.42;98097.66;5007387;28;20119;-75
2023/03/28 06:55:49;;;;;;;5.32;1.60;;;;;;;2.03;70.31;98088.34;5021762;28;20042;-75
2023/03/28 06:58:17;;;;;;;5.20;1.42;;;;;;;2.12;70.38;98092.00;5010213;28;20041;-75
2023/03/28 07:00:53;;;;;;;2.47;0.95;;;;;;;2.08;70.66;98090.56;5010522;28;20153;-75
2023/03/28 07:03:37;;;;;;;3.25;1.27;;;;;;;2.13;70.01;98101.56;5010450;28;20474;-75
2023/03/28 07:06:07;;;;;;;4.95;1.40;;;;;;;2.05;70.69;98110.13;5005513;28;20635;-75
2023/03/28 07:08:38;;;;;;;3.45;1.33;;;;;;;2.17;70.77;98110.88;5005666;28;20645;-75
2023/03/28 07:11:06;;;;;;;6.78;1.33;;;;;;;2.13;70.77;98107.66;5010361;28;20050;-75
2023/03/28 07:13:34;;;;;;;2.83;1.42;;;;;;;2.18;70.27;98112.56;5010657;28;20045;-75
2023/03/28 07:16:07;;;;;;;11.82;1.52;;;;;;;2.05;70.00;98114.56;5009549;28;20048;-75
2023/03/28 07:18:34;;;;;;;4.30;1.27;;;;;;;2.16;70.08;98111.84;5009589;28;20056;-75
2023/03/28 07:21:06;;;;;;;4.00;1.30;;;;;;;2.23;70.20;98107.72;5010090;28;20050;-75
2023/03/28 07:23:35;;;;;;;2.75;1.45;;;;;;;2.19;70.55;98119.47;5010188;28;20093;-75
2023/03/28 07:26:04;;;;;;;2.78;1.35;;;;;;;2.16;70.74;98104.78;5006690;28;20056;-75
2023/03/28 07:28:32;;;;;;;6.47;1.60;;;;;;;2.16;71.09;98127.66;5010091;28;20045;-75
2023/03/28 07:31:03;;;;;;;7.38;1.60;;;;;;;2.31;70.59;98121.06;5010073;28;20052;-75
2023/03/28 07:33:34;;;;;;;6.00;1.83;;;;;;;2.33;71.18;98128.84;5010087;28;20104;-75
2023/03/28 07:36:12;;;;;;;3.00;1.85;;;;;;;2.53;70.43;98128.81;5006610;28;20142;-75
2023/03/28 07:38:40;;;;;;;5.63;2.22;;;;;;;2.56;70.23;98136.47;5006220;28;20049;-75
2023/03/28 07:41:10;;;;;;;7.53;1.63;;;;;;;2.72;69.51;98132.50;5007796;28;20140;-76
2023/03/28 07:43:38;;;;;;;1.33;0.88;;;;;;;2.48;69.77;98138.94;5010274;28;20417;-76
2023/03/28 07:46:07;;;;;;;7.30;1.80;;;;;;;2.47;68.60;98139.06;5010970;28;20057;-76
2023/03/28 07:48:36;;;;;;;8.13;2.05;;;;;;;2.58;69.06;98150.34;5010379;28;20575;-76
2023/03/28 07:51:05;;;;;;;3.15;1.50;;;;;;;2.52;68.32;98148.22;5010420;28;20513;-76
2023/03/28 07:53:33;;;;;;;7.57;1.88;;;;;;;2.53;69.56;98159.59;5007870;28;20049;-76
2023/03/28 07:56:01;;;;;;;4.65;1.45;;;;;;;2.55;68.55;98153.25;5006229;28;20037;-75
2023/03/28 07:58:39;;;;;;;5.35;1.70;;;;;;;2.69;67.86;98159.13;5009413;28;20538;-76
2023/03/28 08:01:10;;;;;;;3.75;1.80;;;;;;;2.61;67.07;98164.19;5008941;28;20046;-75
2023/03/28 08:03:45;;;;;;;4.53;1.75;;;;;;;2.62;68.15;98169.34;5009735;28;20128;-75
2023/03/28 08:06:15;;;;;;;9.38;2.17;;;;;;;2.67;67.17;98166.34;5009975;28;20073;-75
2023/03/28 08:09:00;;;;;;;4.63;0.82;;;;;;;2.69;65.20;98181.06;5010265;28;20046;-75
2023/03/28 08:11:41;;;;;;;5.38;1.02;;;;;;;2.85;64.28;98168.22;5003569;28;20100;-75
2023/03/28 08:14:11;;;;;;;3.00;1.13;;;;;;;2.99;63.54;98171.47;5009778;28;20523;-75
2023/03/28 08:16:39;;;;;;;5.05;1.40;;;;;;;3.07;64.02;98176.91;5009055;28;20046;-75
2023/03/28 08:19:08;;;;;;;3.13;1.45;;;;;;;3.32;64.07;98168.53;5009658;28;20046;-75
2023/03/28 08:22:02;;;;;;;2.03;1.10;;;;;;;3.48;63.69;98179.38;5006330;28;20140;-75
2023/03/28 08:24:39;;;;;;;5.35;1.02;;;;;;;3.45;63.11;98184.94;5009562;28;20464;-75
2023/03/28 08:27:11;;;;;;;2.83;0.63;;;;;;;3.11;63.37;98188.88;5026268;28;20046;-75
2023/03/28 08:29:41;;;;;;;5.90;1.30;;;;;;;2.90;64.24;98187.13;5009572;28;20394;-75
2023/03/28 08:32:09;;;;;;;3.22;0.85;;;;;;;3.00;64.30;98181.06;5018641;28;20134;-75
2023/03/28 08:34:39;;;;;;;2.53;1.02;;;;;;;2.87;63.82;98184.75;5003527;28;20049;-75
2023/03/28 08:37:13;;;;;;;4.10;1.30;;;;;;;2.76;63.98;98179.56;5009195;28;20140;-75
2023/03/28 08:39:43;;;;;;;4.53;1.80;;;;;;;2.98;64.44;98180.34;5009060;28;20046;-75
2023/03/28 08:42:30;;;;;;;5.78;1.27;;;;;;;3.20;63.43;98194.19;5019202;28;20052;-75
2023/03/28 08:45:08;;;;;;;5.32;1.92;;;;;;;3.50;63.64;98195.09;5009009;28;20037;-75
2023/03/28 08:47:37;;;;;;;;;;;;;;;3.09;64.93;98196.91;5019329;28;20133;-75
2023/03/28 08:50:12;;;;;;;2.80;1.17;;;;;;;2.93;64.76;98202.66;5010053;28;19925;-75
2023/03/28 08:52:41;;;;;;;4.22;1.58;;;;;;;3.11;64.71;98216.06;5007676;28;20065;-75
2023/03/28 08:55:22;;;;;;;2.83;1.00;;;;;;;3.20;64.31;98215.28;5012378;28;20041;-75
2023/03/28 08:57:52;;;;;;;3.78;1.30;;;;;;;3.48;64.89;98211.06;5012690;28;20141;-75
2023/03/28 09:00:23;;;;;;;2.38;0.80;;;;;;;3.37;64.42;98221.72;5013735;28;20050;-76
2023/03/28 09:02:51;;;;;;;5.03;1.23;;;;;;;3.51;63.76;98218.72;5012737;28;20065;-75
2023/03/28 09:05:24;;;;;;;2.53;0.90;;;;;;;3.51;61.08;98217.88;5029310;28;20061;-75
2023/03/28 09:08:02;;;;;;;3.00;0.85;;;;;;;3.30;58.88;98220.59;5010234;28;20052;-75
2023/03/28 09:10:34;;;;;;;4.18;1.13;;;;;;;3.27;58.01;98237.50;5006441;28;20129;-75
2023/03/28 09:13:20;;;;;;;4.78;1.15;;;;;;;3.27;57.63;98237.50;5012028;28;20040;-75
2023/03/28 09:16:01;;;;;;;3.38;1.42;;;;;;;3.28;59.24;98226.00;5007094;28;20053;-75
2023/03/28 09:18:42;;;;;;;3.78;0.88;;;;;;;3.46;58.69;98218.25;5012246;28;20046;-75
2023/03/28 09:21:14;;;;;;;2.80;0.93;;;;;;;3.68;55.80;98225.13;5011044;28;20053;-75
2023/03/28 09:23:55;;;;;;;3.75;0.73;;;;;;;3.98;54.89;98222.38;5006219;28;20041;-75
2023/03/28 09:26:53;;;;;;;5.53;1.15;;;;;;;4.18;54.78;98219.75;5012236;28;20050;-75
2023/03/28 09:29:24;;;;;;;4.03;1.02;;;;;;;4.03;55.30;98230.75;5012296;28;20041;-75
2023/03/28 09:31:56;;;;;;;4.30;1.40;;;;;;;3.91;55.83;98226.56;5013411;28;20055;-76
2023/03/28 09:34:27;;;;;;;7.53;1.25;;;;;;;3.75;59.61;98239.44;5011870;28;20112;-76
2023/03/28 09:37:04;;;;;;;4.45;0.98;;;;;;;3.57;59.11;98233.16;5011896;28;20464;-76
2023/03/28 09:39:36;;;;;;;2.97;1.67;;;;;;;3.55;60.51;98235.09;5021133;28;20046;-76
2023/03/28 09:42:11;;;;;;;4.75;1.52;;;;;;;3.66;61.78;98225.25;5012163;28;20050;-75
2023/03/28 09:44:50;;;;;;;4.57;1.20;;;;;;;3.86;59.66;98228.75;5013111;28;20564;-75
2023/03/28 09:47:43;;;;;;;5.85;1.77;;;;;;;4.14;59.72;98234.22;5009069;28;20200;-75
2023/03/28 09:50:13;;;;;;;3.72;1.35;;;;;;;4.38;57.94;98227.53;5011506;28;20045;-74
2023/03/28 09:52:46;;;;;;;3.20;1.05;;;;;;;4.16;54.91;98219.88;5012731;28;20572;-74
2023/03/28 09:55:16;;;;;;;1.33;0.77;;;;;;;3.90;55.69;98234.59;5013457;28;20046;-74
2023/03/28 09:58:02;;;;;;;4.13;0.70;;;;;;;3.99;57.00;98234.63;5012158;28;20099;-75
2023/03/28 10:00:35;;;;;;;2.65;1.00;;;;;;;3.95;58.75;98235.84;5022060;28;20045;-74
2023/03/28 10:03:33;;;;;;;5.80;0.98;;;;;;;4.16;59.16;98241.00;5004274;28;20081;-74
2023/03/28 10:06:18;;;;;;;0.98;0.57;;;;;;;4.06;57.13;98233.09;5011533;28;20129;-74
2023/03/28 10:08:47;;;;;;;2.00;0.90;;;;;;;4.14;57.69;98231.59;5012201;28;20092;-75
2023/03/28 10:11:27;;;;;;;4.38;0.95;;;;;;;4.22;56.39;98239.63;5013278;28;20512;-74
2023/03/28 10:13:56;;;;;;;4.68;1.10;;;;;;;4.29;54.96;98241.59;5013591;28;20095;-74
2023/03/28 10:16:28;;;;;;;5.68;1.05;;;;;;;4.34;54.89;98243.81;5011979;28;20129;-74
2023/03/28 10:19:13;;;;;;;3.67;1.17;;;;;;;4.30;55.23;98245.06;5012499;28;20050;-74
2023/03/28 10:22:02;;;;;;;4.97;1.27;;;;;;;4.18;56.28;98239.06;5008988;28;20209;-74
2023/03/28 10:24:32;;;;;;;2.85;0.82;;;;;;;4.18;56.71;98243.53;5022645;28;20061;-74
2023/03/28 10:27:07;;;;;;;6.35;2.63;;;;;;;4.33;57.11;98239.50;5004483;28;20046;-74
2023/03/28 10:29:36;;;;;;;4.82;1.48;;;;;;;4.43;57.61;98243.81;5012056;28;20053;-75
2023/03/28 10:32:05;;;;;;;6.20;1.23;;;;;;;4.13;57.89;98248.41;5011664;28;20050;-74
2023/03/28 10:34:41;;;;;;;5.07;1.02;;;;;;;4.40;57.74;98253.81;5004898;28;20569;-75
2023/03/28 10:37:23;;;;;;;6.95;1.40;;;;;;;4.39;57.36;98249.50;5011620;28;20053;-76
2023/03/28 10:40:24;;;;;;;2.42;0.90;;;;;;;4.41;56.75;98244.91;5019344;28;20049;-74
2023/03/28 10:43:20;;;;;;;3.80;0.90;;;;;;;4.32;57.28;98258.97;5011106;28;20073;-75
2023/03/28 10:46:14;;;;;;;7.68;1.35;;;;;;;4.34;57.68;98263.16;5027759;28;20420;-75
2023/03/28 10:48:58;;;;;;;5.70;1.38;;;;;;;4.13;58.12;98254.53;5011360;28;20137;-75
2023/03/28 10:51:31;;;;;;;3.88;1.10;;;;;;;4.01;58.33;98263.53;5019879;28;20065;-74
2023/03/28 10:54:14;;;;;;;3.80;0.90;;;;;;;4.09;58.46;98261.03;5010854;28;20042;-74
2023/03/28 10:56:49;;;;;;;4.20;1.52;;;;;;;4.24;58.06;98261.47;5021060;28;20042;-74
2023/03/28 10:59:30;;;;;;;6.55;1.05;;;;;;;4.51;58.09;98260.75;5010548;28;20053;-74
2023/03/28 11:02:11;;;;;;;2.70;1.33;;;;;;;4.89;56.08;98250.13;5027456;28;20046;-74
2023/03/28 11:04:53;;;;;;;0.98;0.70;;;;;;;5.39;54.00;98253.34;5010206;28;20042;-74
2023/03/28 11:07:29;;;;;;;4.55;1.45;;;;;;;5.30;54.14;98240.94;5010577;28;20567;-74
2023/03/28 11:10:14;;;;;;;2.65;1.00;;;;;;;5.15;54.09;98240.59;5009344;28;20049;-74
2023/03/28 11:13:17;;;;;;;3.28;1.00;;;;;;;5.33;53.65;98253.91;5009563;28;20054;-75
2023/03/28 11:15:49;;;;;;;0.98;0.77;;;;;;;5.37;52.52;98255.28;5010990;28;20523;-76
2023/03/28 11:18:44;;;;;;;5.00;0.80;;;;;;;5.38;52.71;98246.38;5003909;28;20045;-77
2023/03/28 11:21:27;;;;;;;3.45;1.23;;;;;;;5.40;52.84;98259.44;5010890;28;20053;-76
2023/03/28 11:24:05;;;;;;;1.52;0.73;;;;;;;5.34;51.97;98252.09;5010788;28;20042;-75
2023/03/28 11:26:54;;;;;;;1.83;1.10;;;;;;;5.33;52.32;98248.59;5009751;28;20046;-74
2023/03/28 11:29:54;;;;;;;6.38;1.35;;;;;;;5.45;52.51;98243.97;5007307;28;20046;-74
2023/03/28 11:32:30;;;;;;;3.92;0.90;;;;;;;5.26;52.58;98242.25;5003097;28;20064;-76
2023/03/28 11:35:03;;;;;;;2.83;0.82;;;;;;;5.11;52.15;98251.59;5011279;28;20046;-74
2023/03/28 11:37:33;;;;;;;7.53;1.30;;;;;;;5.20;53.02;98261.31;5026945;28;20044;-74
2023/03/28 11:40:08;;;;;;;2.60;0.80;;;;;;;5.19;53.55;98256.19;5014841;28;20092;-75
2023/03/28 11:42:51;;;;;;;3.47;0.90;;;;;;;4.86;55.25;98257.53;5017581;28;20096;-75
2023/03/28 11:45:26;;;;;;;2.55;1.02;;;;;;;4.85;54.68;98259.34;5016130;28;20046;-75
2023/03/28 11:48:19;;;;;;;7.10;1.13;;;;;;;5.16;53.82;98252.84;5014051;28;20038;-75
2023/03/28 11:50:56;;;;;;;2.95;0.90;;;;;;;4.96;54.12;98251.25;5029287;28;20531;-74
2023/03/28 11:53:36;;;;;;;1.60;0.80;;;;;;;4.83;54.96;98266.56;5008495;28;20074;-74
2023/03/28 11:56:12;;;;;;;2.25;0.88;;;;;;;4.64;55.39;98254.22;5027908;28;20042;-75
2023/03/28 11:59:01;;;;;;;2.90;0.98;;;;;;;4.95;54.05;98248.75;5011496;28;20038;-75
2023/03/28 12:01:31;;;;;;;3.28;1.02;;;;;;;5.41;53.07;98237.28;5002481;28;20038;-75
2023/03/28 12:04:03;;;;;;;1.15;0.73;;;;;;;5.73;52.42;98235.03;5010453;28;20046;-75
2023/03/28 12:06:35;;;;;;;2.58;0.95;;;;;;;5.91;51.31;98236.94;5002914;28;20134;-75
2023/03/28 12:09:10;;;;;;;3.47;1.35;;;;;;;6.05;51.60;98237.22;5027492;28;20564;-74
2023/03/28 12:11:43;;;;;;;7.50;1.00;;;;;;;6.14;51.79;98227.53;5003591;28;20096;-75
2023/03/28 12:14:35;;;;;;;2.80;1.00;;;;;;;6.08;50.88;98230.81;5010780;28;20509;-75
2023/03/28 12:17:15;;;;;;;;;;;;;;;5.71;51.76;98226.38;5008918;28;20461;-74